• Join FlightAware (Why Join?)
  • Login
  • US Flag 
07:17AM EDT


 

Airport Tracker/Info


-or-


 

Live Flight TrackerFlight Track Log ✈ AMF1840 ✈ 01-May-2013 ✈ KSLC - KJAC

Flight Track Log - Related Links

Times and Time Zones

All times are in EDT time to prevent confusion due to time zone crossing. See the AMF1840 flight status page for this flight to view local times or setup timezone preferences in your user account.

Time Position Orientation Groundspeed Altitude Reporting Facility
EDT Latitude Longitude Course Direction KTS MPH feet Rate Location/Type
08:37AM 40.7931 -111.9981 337° Northwest 121 139 4,900  Level Salt Lake Center
08:37AM 40.8122 -112.0086 337° Northwest 113 130 6,200 1,560 Climbing Salt Lake Center
08:38AM 40.8453 -112.0228 342° North 127 146 7,500 1,140 Climbing Salt Lake Center
08:39AM 40.8542 -112.0258 345° North 125 144 7,800 1,080 Climbing Salt Lake Center
08:40AM 40.8892 -112.0408 342° North 132 152 9,000 1,140 Climbing Salt Lake Center
08:41AM 40.9264 -112.0569 342° North 139 160 10,100 1,140 Climbing Salt Lake Center
08:42AM 40.9639 -112.0400 19° North 150 173 11,300 1,140 Climbing Salt Lake Center
08:43AM 40.9914 -111.9997 48° Northeast 147 169 12,500 1,080 Climbing Salt Lake Center
08:44AM 41.0222 -111.9611 43° Northeast 153 176 13,500 1,020 Climbing Salt Lake Center
08:45AM 41.0600 -111.9369 26° Northeast 151 174 14,600 720 Climbing Salt Lake Center
08:46AM 41.0981 -111.9072 30° Northeast 160 184 15,000 180 Climbing Salt Lake Center
08:47AM 41.1450 -111.8789 24° Northeast 182 209 15,000  Level Salt Lake Center
08:48AM 41.1956 -111.8508 23° Northeast 195 224 15,000  Level Salt Lake Center
08:49AM 41.2472 -111.8236 22° Northeast 198 228 15,100  Climbing Salt Lake Center
08:50AM 41.3000 -111.7972 21° North 205 236 15,000 -60 Descending Salt Lake Center
08:51AM 41.3506 -111.7692 23° Northeast 197 227 15,000  Level Salt Lake Center
08:52AM 41.4017 -111.7431 21° North 197 227 15,100  Climbing Salt Lake Center
08:53AM 41.4486 -111.7106 27° Northeast 191 220 15,000 -120 Descending Salt Lake Center
08:54AM 41.4975 -111.6839 22° Northeast 190 219 14,900  Descending Salt Lake Center
08:55AM 41.5500 -111.6656 15° North 194 223 15,100 60 Climbing Salt Lake Center
08:56AM 41.6019 -111.6511 12° North 190 219 15,100  Level Salt Lake Center
08:57AM 41.6519 -111.6244 22° Northeast 194 223 15,100  Level Salt Lake Center
08:58AM 41.7022 -111.5903 27° Northeast 199 229 15,100 -120 Level Salt Lake Center
08:59AM 41.7542 -111.5703 16° North 196 226 14,900 -60 Descending Salt Lake Center
09:00AM 41.8161 -111.5458 16° North 193 222 15,000  Climbing Salt Lake Center
09:01AM 41.8678 -111.5294 13° North 193 222 15,000  Level Salt Lake Center
09:02AM 41.9169 -111.5067 19° North 189 217 15,000  Level Salt Lake Center
09:03AM 41.9697 -111.4889 14° North 192 221 15,000 -60 Level Salt Lake Center
09:04AM 42.0189 -111.4661 19° North 189 217 14,900  Descending Salt Lake Center
09:05AM 42.0697 -111.4475 15° North 189 217 15,000 60 Climbing Salt Lake Center
09:06AM 42.1164 -111.4206 23° Northeast 184 212 15,100  Climbing Salt Lake Center
09:07AM 42.1658 -111.3917 23° Northeast 192 221 15,100  Level Salt Lake Center
09:08AM 42.2158 -111.3719 16° North 188 216 15,200  Climbing Salt Lake Center
09:09AM 42.2683 -111.3506 17° North 196 226 15,200 -60 Level Salt Lake Center
09:10AM 42.3172 -111.3264 20° North 189 217 15,100 -120 Descending Salt Lake Center
09:11AM 42.3678 -111.3017 20° North 192 221 15,000 -60 Descending Salt Lake Center
09:12AM 42.4183 -111.2831 15° North 189 217 15,000  Level Salt Lake Center
09:13AM 42.4700 -111.2614 17° North 193 222 15,100 60 Climbing Salt Lake Center
09:14AM 42.5200 -111.2392 18° North 191 220 15,200  Climbing Salt Lake Center
09:15AM 42.5694 -111.2142 20° North 189 217 15,200  Level Salt Lake Center
09:16AM 42.6303 -111.1886 17° North 191 220 15,200  Level Salt Lake Center
09:17AM 42.6806 -111.1622 21° North 194 223 15,200  Level Salt Lake Center
09:18AM 42.7317 -111.1406 17° North 196 226 15,200  Level Salt Lake Center
09:19AM 42.7831 -111.1186 17° North 195 224 15,300  Climbing Salt Lake Center
09:20AM 42.8367 -111.1075 North 193 222 15,200 -60 Descending Salt Lake Center
09:21AM 42.8914 -111.0967 North 197 227 15,200  Level Salt Lake Center
09:22AM 42.9456 -111.0817 11° North 199 229 15,200 -120 Level Salt Lake Center
09:23AM 42.9986 -111.0592 17° North 199 229 15,000 -60 Descending Salt Lake Center
09:24AM 43.0489 -111.0269 25° Northeast 201 231 15,100  Climbing Salt Lake Center
09:25AM 43.1031 -111.0058 16° North 203 234 15,000 -300 Descending Salt Lake Center
09:26AM 43.1572 -110.9789 20° North 207 238 14,600 -540 Descending Salt Lake Center
09:27AM 43.2156 -110.9556 16° North 216 249 13,900 -720 Descending Salt Lake Center
09:28AM 43.2708 -110.9231 23° Northeast 216 249 13,200 -480 Descending Salt Lake Center
09:29AM 43.3356 -110.8872 22° Northeast 210 242 13,000 -180 Descending Salt Lake Center
09:30AM 43.3839 -110.8547 26° Northeast 197 227 12,900 -960 Descending Salt Lake Center
09:31AM 43.4344 -110.8314 19° North 194 223 11,100 -1,620 Descending Salt Lake Center
09:32AM 43.4786 -110.8083 21° North 183 211 9,600 -1,320 Descending Salt Lake Center
09:33AM 43.5197 -110.7861 21° North 170 196 8,500 -1,080 Descending Salt Lake Center
09:34AM 43.5553 -110.7686 20° North 152 175 7,500 -960 Descending Salt Lake Center
09:35AM 43.5867 -110.7478 26° Northeast 138 159 6,600 -900 Descending Salt Lake Center